sensor_id;sensor_type;location;lat;lon;timestamp;temperature;humidity
30678;DHT22;73746;47.466;8.992;2024-01-27T00:01:58;7.30;99.90
30678;DHT22;73746;47.466;8.992;2024-01-27T00:04:29;7.40;99.90
30678;DHT22;73746;47.466;8.992;2024-01-27T00:07:01;7.30;99.90
30678;DHT22;73746;47.466;8.992;2024-01-27T00:09:43;7.30;99.90
30678;DHT22;73746;47.466;8.992;2024-01-27T00:12:14;7.40;99.90
30678;DHT22;73746;47.466;8.992;2024-01-27T00:14:46;7.30;99.90
30678;DHT22;73746;47.466;8.992;2024-01-27T00:17:18;7.30;99.90
30678;DHT22;73746;47.466;8.992;2024-01-27T00:19:55;7.30;99.90
30678;DHT22;73746;47.466;8.992;2024-01-27T00:22:27;7.30;99.90
30678;DHT22;73746;47.466;8.992;2024-01-27T00:24:59;7.30;99.90
30678;DHT22;73746;47.466;8.992;2024-01-27T00:27:30;7.30;99.90
30678;DHT22;73746;47.466;8.992;2024-01-27T00:30:05;7.20;99.90
30678;DHT22;73746;47.466;8.992;2024-01-27T00:32:37;7.20;99.90
30678;DHT22;73746;47.466;8.992;2024-01-27T00:35:09;7.20;99.90
30678;DHT22;73746;47.466;8.992;2024-01-27T00:37:42;7.20;99.90
30678;DHT22;73746;47.466;8.992;2024-01-27T00:40:13;7.20;99.90
30678;DHT22;73746;47.466;8.992;2024-01-27T00:42:45;7.10;99.90
30678;DHT22;73746;47.466;8.992;2024-01-27T00:45:17;7.10;99.90
30678;DHT22;73746;47.466;8.992;2024-01-27T00:47:50;7.10;99.90
30678;DHT22;73746;47.466;8.992;2024-01-27T00:50:22;7.10;99.90
30678;DHT22;73746;47.466;8.992;2024-01-27T00:52:54;7.10;99.90
30678;DHT22;73746;47.466;8.992;2024-01-27T00:55:27;7.10;99.90
30678;DHT22;73746;47.466;8.992;2024-01-27T00:57:59;7.00;99.90
30678;DHT22;73746;47.466;8.992;2024-01-27T01:00:31;7.00;99.90
30678;DHT22;73746;47.466;8.992;2024-01-27T01:03:03;7.00;99.90
30678;DHT22;73746;47.466;8.992;2024-01-27T01:05:35;7.00;99.90
30678;DHT22;73746;47.466;8.992;2024-01-27T01:08:07;7.00;99.90
30678;DHT22;73746;47.466;8.992;2024-01-27T01:10:39;7.00;99.90
30678;DHT22;73746;47.466;8.992;2024-01-27T01:13:11;6.90;99.90
30678;DHT22;73746;47.466;8.992;2024-01-27T01:15:43;6.90;99.90
30678;DHT22;73746;47.466;8.992;2024-01-27T01:18:26;6.80;99.90
30678;DHT22;73746;47.466;8.992;2024-01-27T01:20:59;6.70;99.90
30678;DHT22;73746;47.466;8.992;2024-01-27T01:23:31;6.60;99.90
30678;DHT22;73746;47.466;8.992;2024-01-27T01:26:03;6.60;99.90
30678;DHT22;73746;47.466;8.992;2024-01-27T01:28:35;6.50;99.90
30678;DHT22;73746;47.466;8.992;2024-01-27T01:31:08;6.50;99.90
30678;DHT22;73746;47.466;8.992;2024-01-27T01:33:40;6.50;99.90
30678;DHT22;73746;47.466;8.992;2024-01-27T01:36:12;6.50;99.90
30678;DHT22;73746;47.466;8.992;2024-01-27T01:38:44;6.40;99.90
30678;DHT22;73746;47.466;8.992;2024-01-27T01:41:16;6.40;99.90
30678;DHT22;73746;47.466;8.992;2024-01-27T01:43:48;6.40;99.90
30678;DHT22;73746;47.466;8.992;2024-01-27T01:46:21;6.30;99.90
30678;DHT22;73746;47.466;8.992;2024-01-27T01:48:54;6.40;99.90
30678;DHT22;73746;47.466;8.992;2024-01-27T01:51:27;6.30;99.90
30678;DHT22;73746;47.466;8.992;2024-01-27T01:53:59;6.30;99.90
30678;DHT22;73746;47.466;8.992;2024-01-27T01:56:31;6.20;99.90
30678;DHT22;73746;47.466;8.992;2024-01-27T01:59:23;6.20;99.90
30678;DHT22;73746;47.466;8.992;2024-01-27T02:01:54;6.20;99.90
30678;DHT22;73746;47.466;8.992;2024-01-27T02:04:26;6.20;99.90
30678;DHT22;73746;47.466;8.992;2024-01-27T02:06:58;6.20;99.90
30678;DHT22;73746;47.466;8.992;2024-01-27T02:09:30;6.10;99.90
30678;DHT22;73746;47.466;8.992;2024-01-27T02:12:02;6.10;99.90
30678;DHT22;73746;47.466;8.992;2024-01-27T02:14:34;6.00;99.90
30678;DHT22;73746;47.466;8.992;2024-01-27T02:17:06;6.10;99.90
30678;DHT22;73746;47.466;8.992;2024-01-27T02:19:38;6.10;99.90
30678;DHT22;73746;47.466;8.992;2024-01-27T02:22:10;6.10;99.90
30678;DHT22;73746;47.466;8.992;2024-01-27T02:24:41;6.10;99.90
30678;DHT22;73746;47.466;8.992;2024-01-27T02:27:13;6.10;99.90
30678;DHT22;73746;47.466;8.992;2024-01-27T02:29:45;6.10;99.90
30678;DHT22;73746;47.466;8.992;2024-01-27T02:32:17;6.00;99.90
30678;DHT22;73746;47.466;8.992;2024-01-27T02:34:49;6.00;99.90
30678;DHT22;73746;47.466;8.992;2024-01-27T02:37:21;6.00;99.90
30678;DHT22;73746;47.466;8.992;2024-01-27T02:39:53;6.00;99.90
30678;DHT22;73746;47.466;8.992;2024-01-27T02:42:25;6.00;99.90
30678;DHT22;73746;47.466;8.992;2024-01-27T02:44:57;6.00;99.90
30678;DHT22;73746;47.466;8.992;2024-01-27T02:47:29;6.10;99.90
30678;DHT22;73746;47.466;8.992;2024-01-27T02:50:00;6.10;99.90
30678;DHT22;73746;47.466;8.992;2024-01-27T02:52:32;6.00;99.90
30678;DHT22;73746;47.466;8.992;2024-01-27T02:55:05;6.10;99.90
30678;DHT22;73746;47.466;8.992;2024-01-27T02:57:37;6.10;99.90
30678;DHT22;73746;47.466;8.992;2024-01-27T03:00:11;6.10;99.90
30678;DHT22;73746;47.466;8.992;2024-01-27T03:02:43;6.00;99.90
30678;DHT22;73746;47.466;8.992;2024-01-27T03:05:33;6.00;99.90
30678;DHT22;73746;47.466;8.992;2024-01-27T03:08:06;6.00;99.90
30678;DHT22;73746;47.466;8.992;2024-01-27T03:10:38;6.00;99.90
30678;DHT22;73746;47.466;8.992;2024-01-27T03:13:10;6.00;99.90
30678;DHT22;73746;47.466;8.992;2024-01-27T03:15:42;6.10;99.90
30678;DHT22;73746;47.466;8.992;2024-01-27T03:18:14;6.10;99.90
30678;DHT22;73746;47.466;8.992;2024-01-27T03:20:47;6.10;99.90
30678;DHT22;73746;47.466;8.992;2024-01-27T03:23:19;6.00;99.90
30678;DHT22;73746;47.466;8.992;2024-01-27T03:25:51;6.00;99.90
30678;DHT22;73746;47.466;8.992;2024-01-27T03:28:24;6.00;99.90
30678;DHT22;73746;47.466;8.992;2024-01-27T03:30:56;6.00;99.90
30678;DHT22;73746;47.466;8.992;2024-01-27T03:33:29;6.00;99.90
30678;DHT22;73746;47.466;8.992;2024-01-27T03:36:01;5.90;99.90
30678;DHT22;73746;47.466;8.992;2024-01-27T03:38:33;6.00;99.90
30678;DHT22;73746;47.466;8.992;2024-01-27T03:41:07;6.00;99.90
30678;DHT22;73746;47.466;8.992;2024-01-27T03:43:39;6.10;99.90
30678;DHT22;73746;47.466;8.992;2024-01-27T03:46:10;6.00;99.90
30678;DHT22;73746;47.466;8.992;2024-01-27T03:48:42;6.10;99.90
30678;DHT22;73746;47.466;8.992;2024-01-27T03:51:15;6.10;99.90
30678;DHT22;73746;47.466;8.992;2024-01-27T03:53:47;6.20;99.90
30678;DHT22;73746;47.466;8.992;2024-01-27T03:56:19;6.20;99.90
30678;DHT22;73746;47.466;8.992;2024-01-27T03:58:50;6.20;99.90
30678;DHT22;73746;47.466;8.992;2024-01-27T04:01:22;6.20;99.90
30678;DHT22;73746;47.466;8.992;2024-01-27T04:03:55;6.20;99.90
30678;DHT22;73746;47.466;8.992;2024-01-27T04:06:27;6.20;99.90
30678;DHT22;73746;47.466;8.992;2024-01-27T04:08:59;6.20;99.90
30678;DHT22;73746;47.466;8.992;2024-01-27T04:14:13;6.10;99.90
30678;DHT22;73746;47.466;8.992;2024-01-27T04:16:45;6.10;99.90
30678;DHT22;73746;47.466;8.992;2024-01-27T04:19:16;6.10;99.90
30678;DHT22;73746;47.466;8.992;2024-01-27T04:21:48;6.10;99.90
30678;DHT22;73746;47.466;8.992;2024-01-27T04:24:20;6.10;99.90
30678;DHT22;73746;47.466;8.992;2024-01-27T04:26:52;6.10;99.90
30678;DHT22;73746;47.466;8.992;2024-01-27T04:29:24;6.10;99.90
30678;DHT22;73746;47.466;8.992;2024-01-27T04:31:56;6.00;99.90
30678;DHT22;73746;47.466;8.992;2024-01-27T04:34:28;6.10;99.90
30678;DHT22;73746;47.466;8.992;2024-01-27T04:37:01;6.00;99.90
30678;DHT22;73746;47.466;8.992;2024-01-27T04:39:32;6.00;99.90
30678;DHT22;73746;47.466;8.992;2024-01-27T04:42:05;6.00;99.90
30678;DHT22;73746;47.466;8.992;2024-01-27T04:44:40;6.00;99.90
30678;DHT22;73746;47.466;8.992;2024-01-27T04:47:12;5.90;99.90
30678;DHT22;73746;47.466;8.992;2024-01-27T04:49:44;5.90;99.90
30678;DHT22;73746;47.466;8.992;2024-01-27T04:52:16;5.80;99.90
30678;DHT22;73746;47.466;8.992;2024-01-27T04:54:48;5.80;99.90
30678;DHT22;73746;47.466;8.992;2024-01-27T04:57:19;5.80;99.90
30678;DHT22;73746;47.466;8.992;2024-01-27T04:59:51;5.70;99.90
30678;DHT22;73746;47.466;8.992;2024-01-27T05:02:23;5.60;99.90
30678;DHT22;73746;47.466;8.992;2024-01-27T05:04:55;5.50;99.90
30678;DHT22;73746;47.466;8.992;2024-01-27T05:07:27;5.40;99.90
30678;DHT22;73746;47.466;8.992;2024-01-27T05:09:59;5.30;99.90
30678;DHT22;73746;47.466;8.992;2024-01-27T05:12:30;5.30;99.90
30678;DHT22;73746;47.466;8.992;2024-01-27T05:15:03;5.20;99.90
30678;DHT22;73746;47.466;8.992;2024-01-27T05:17:35;5.10;99.90
30678;DHT22;73746;47.466;8.992;2024-01-27T05:20:09;5.10;99.90
30678;DHT22;73746;47.466;8.992;2024-01-27T05:22:41;5.00;99.90
30678;DHT22;73746;47.466;8.992;2024-01-27T05:25:13;5.10;99.90
30678;DHT22;73746;47.466;8.992;2024-01-27T05:27:46;5.00;99.90
30678;DHT22;73746;47.466;8.992;2024-01-27T05:30:19;5.00;99.90
30678;DHT22;73746;47.466;8.992;2024-01-27T05:32:50;4.90;99.90
30678;DHT22;73746;47.466;8.992;2024-01-27T05:35:23;4.80;99.90
30678;DHT22;73746;47.466;8.992;2024-01-27T05:37:54;4.80;99.90
30678;DHT22;73746;47.466;8.992;2024-01-27T05:40:26;4.80;99.90
30678;DHT22;73746;47.466;8.992;2024-01-27T05:42:58;4.80;99.90
30678;DHT22;73746;47.466;8.992;2024-01-27T05:45:30;4.80;99.90
30678;DHT22;73746;47.466;8.992;2024-01-27T05:48:02;4.80;99.90
30678;DHT22;73746;47.466;8.992;2024-01-27T05:50:34;4.80;99.90
30678;DHT22;73746;47.466;8.992;2024-01-27T05:53:06;4.70;99.90
30678;DHT22;73746;47.466;8.992;2024-01-27T05:55:38;4.70;99.90
30678;DHT22;73746;47.466;8.992;2024-01-27T05:58:10;4.70;99.90
30678;DHT22;73746;47.466;8.992;2024-01-27T06:00:43;4.80;99.90
30678;DHT22;73746;47.466;8.992;2024-01-27T06:03:15;4.70;99.90
30678;DHT22;73746;47.466;8.992;2024-01-27T06:05:48;4.70;99.90
30678;DHT22;73746;47.466;8.992;2024-01-27T06:08:20;4.70;99.90
30678;DHT22;73746;47.466;8.992;2024-01-27T06:10:52;4.70;99.90
30678;DHT22;73746;47.466;8.992;2024-01-27T06:13:23;4.70;99.90
30678;DHT22;73746;47.466;8.992;2024-01-27T06:15:55;4.70;99.90
30678;DHT22;73746;47.466;8.992;2024-01-27T06:18:27;4.70;99.90
30678;DHT22;73746;47.466;8.992;2024-01-27T06:20:59;4.70;99.90
30678;DHT22;73746;47.466;8.992;2024-01-27T06:23:31;4.70;99.90
30678;DHT22;73746;47.466;8.992;2024-01-27T06:26:06;4.70;99.90
30678;DHT22;73746;47.466;8.992;2024-01-27T06:28:38;4.70;99.90
30678;DHT22;73746;47.466;8.992;2024-01-27T06:31:09;4.70;99.90
30678;DHT22;73746;47.466;8.992;2024-01-27T06:33:42;4.70;99.90
30678;DHT22;73746;47.466;8.992;2024-01-27T06:36:14;4.70;99.90
30678;DHT22;73746;47.466;8.992;2024-01-27T06:38:46;4.70;99.90
30678;DHT22;73746;47.466;8.992;2024-01-27T06:41:18;4.70;99.90
30678;DHT22;73746;47.466;8.992;2024-01-27T06:43:50;4.60;99.90
30678;DHT22;73746;47.466;8.992;2024-01-27T06:46:22;4.60;99.90
30678;DHT22;73746;47.466;8.992;2024-01-27T06:48:55;4.60;99.90
30678;DHT22;73746;47.466;8.992;2024-01-27T06:51:27;4.60;99.90
30678;DHT22;73746;47.466;8.992;2024-01-27T06:53:59;4.50;99.90
30678;DHT22;73746;47.466;8.992;2024-01-27T06:56:31;4.50;99.90
30678;DHT22;73746;47.466;8.992;2024-01-27T06:59:03;4.50;99.90
30678;DHT22;73746;47.466;8.992;2024-01-27T07:01:34;4.50;99.90
30678;DHT22;73746;47.466;8.992;2024-01-27T07:04:06;4.50;99.90
30678;DHT22;73746;47.466;8.992;2024-01-27T07:06:38;4.50;99.90
30678;DHT22;73746;47.466;8.992;2024-01-27T07:09:10;4.50;99.90
30678;DHT22;73746;47.466;8.992;2024-01-27T07:11:42;4.50;99.90
30678;DHT22;73746;47.466;8.992;2024-01-27T07:14:14;4.50;99.90
30678;DHT22;73746;47.466;8.992;2024-01-27T07:16:46;4.50;99.90
30678;DHT22;73746;47.466;8.992;2024-01-27T07:19:18;4.60;99.90
30678;DHT22;73746;47.466;8.992;2024-01-27T07:21:50;4.50;99.90
30678;DHT22;73746;47.466;8.992;2024-01-27T07:24:22;4.50;99.90
30678;DHT22;73746;47.466;8.992;2024-01-27T07:26:54;4.50;99.90
30678;DHT22;73746;47.466;8.992;2024-01-27T07:29:26;4.40;99.90
30678;DHT22;73746;47.466;8.992;2024-01-27T07:31:58;4.40;99.90
30678;DHT22;73746;47.466;8.992;2024-01-27T07:34:30;4.40;99.90
30678;DHT22;73746;47.466;8.992;2024-01-27T07:37:02;4.40;99.90
30678;DHT22;73746;47.466;8.992;2024-01-27T07:39:34;4.20;99.90
30678;DHT22;73746;47.466;8.992;2024-01-27T07:42:06;4.10;99.90
30678;DHT22;73746;47.466;8.992;2024-01-27T07:44:38;4.10;99.90
30678;DHT22;73746;47.466;8.992;2024-01-27T07:47:10;4.10;99.90
30678;DHT22;73746;47.466;8.992;2024-01-27T07:49:42;4.10;99.90
30678;DHT22;73746;47.466;8.992;2024-01-27T07:52:34;4.00;99.90
30678;DHT22;73746;47.466;8.992;2024-01-27T07:55:07;4.00;99.90
30678;DHT22;73746;47.466;8.992;2024-01-27T07:57:39;4.00;99.90
30678;DHT22;73746;47.466;8.992;2024-01-27T08:00:12;4.00;99.90
30678;DHT22;73746;47.466;8.992;2024-01-27T08:02:45;4.00;99.90
30678;DHT22;73746;47.466;8.992;2024-01-27T08:05:17;4.10;99.90
30678;DHT22;73746;47.466;8.992;2024-01-27T08:07:51;4.10;99.90
30678;DHT22;73746;47.466;8.992;2024-01-27T08:10:24;4.20;99.90
30678;DHT22;73746;47.466;8.992;2024-01-27T08:12:56;4.50;99.90
30678;DHT22;73746;47.466;8.992;2024-01-27T08:15:28;4.90;99.90
30678;DHT22;73746;47.466;8.992;2024-01-27T08:18:00;5.10;99.90
30678;DHT22;73746;47.466;8.992;2024-01-27T08:20:32;5.40;99.90
30678;DHT22;73746;47.466;8.992;2024-01-27T08:23:04;5.60;99.90
30678;DHT22;73746;47.466;8.992;2024-01-27T08:25:37;5.70;99.90
30678;DHT22;73746;47.466;8.992;2024-01-27T08:28:09;5.70;99.90
30678;DHT22;73746;47.466;8.992;2024-01-27T08:30:41;5.80;99.90
30678;DHT22;73746;47.466;8.992;2024-01-27T08:33:13;5.90;99.90
30678;DHT22;73746;47.466;8.992;2024-01-27T08:35:47;6.00;99.90
30678;DHT22;73746;47.466;8.992;2024-01-27T08:38:19;6.00;99.90
30678;DHT22;73746;47.466;8.992;2024-01-27T08:40:51;5.90;99.90
30678;DHT22;73746;47.466;8.992;2024-01-27T08:43:22;5.90;99.90
30678;DHT22;73746;47.466;8.992;2024-01-27T08:45:54;6.00;99.90
30678;DHT22;73746;47.466;8.992;2024-01-27T08:48:27;6.20;99.90
30678;DHT22;73746;47.466;8.992;2024-01-27T08:51:00;6.40;99.90
30678;DHT22;73746;47.466;8.992;2024-01-27T08:53:32;6.70;99.90
30678;DHT22;73746;47.466;8.992;2024-01-27T08:56:04;6.90;99.90
30678;DHT22;73746;47.466;8.992;2024-01-27T08:58:36;6.90;99.90
30678;DHT22;73746;47.466;8.992;2024-01-27T09:01:08;7.00;99.90
30678;DHT22;73746;47.466;8.992;2024-01-27T09:03:40;7.20;99.90
30678;DHT22;73746;47.466;8.992;2024-01-27T09:06:12;7.50;99.90
30678;DHT22;73746;47.466;8.992;2024-01-27T09:08:45;7.70;99.90
30678;DHT22;73746;47.466;8.992;2024-01-27T09:11:16;7.90;99.90
30678;DHT22;73746;47.466;8.992;2024-01-27T09:13:48;7.90;99.90
30678;DHT22;73746;47.466;8.992;2024-01-27T09:16:22;8.00;99.90
30678;DHT22;73746;47.466;8.992;2024-01-27T09:18:54;8.10;99.90
30678;DHT22;73746;47.466;8.992;2024-01-27T09:23:57;8.30;99.90
30678;DHT22;73746;47.466;8.992;2024-01-27T09:26:29;8.20;99.90
30678;DHT22;73746;47.466;8.992;2024-01-27T09:29:01;8.10;99.90
30678;DHT22;73746;47.466;8.992;2024-01-27T09:31:33;8.10;99.90
30678;DHT22;73746;47.466;8.992;2024-01-27T09:34:05;8.30;99.90
30678;DHT22;73746;47.466;8.992;2024-01-27T09:36:37;8.40;99.90
30678;DHT22;73746;47.466;8.992;2024-01-27T09:39:09;8.50;99.90
30678;DHT22;73746;47.466;8.992;2024-01-27T09:41:41;8.60;99.90
30678;DHT22;73746;47.466;8.992;2024-01-27T09:44:15;8.60;99.90
30678;DHT22;73746;47.466;8.992;2024-01-27T09:46:48;8.70;99.90
30678;DHT22;73746;47.466;8.992;2024-01-27T09:49:20;8.60;99.90
30678;DHT22;73746;47.466;8.992;2024-01-27T09:51:52;8.50;99.90
30678;DHT22;73746;47.466;8.992;2024-01-27T09:54:28;8.40;99.90
30678;DHT22;73746;47.466;8.992;2024-01-27T09:57:00;8.40;99.90
30678;DHT22;73746;47.466;8.992;2024-01-27T09:59:33;8.50;99.90
30678;DHT22;73746;47.466;8.992;2024-01-27T10:02:07;8.50;99.90
30678;DHT22;73746;47.466;8.992;2024-01-27T10:04:42;8.50;99.90
30678;DHT22;73746;47.466;8.992;2024-01-27T10:07:15;8.60;99.90
30678;DHT22;73746;47.466;8.992;2024-01-27T10:09:50;8.70;99.90
30678;DHT22;73746;47.466;8.992;2024-01-27T10:12:24;8.80;99.90
30678;DHT22;73746;47.466;8.992;2024-01-27T10:14:57;8.90;99.90
30678;DHT22;73746;47.466;8.992;2024-01-27T10:17:29;9.00;99.90
30678;DHT22;73746;47.466;8.992;2024-01-27T10:20:03;9.20;99.90
30678;DHT22;73746;47.466;8.992;2024-01-27T10:22:39;9.30;99.90
30678;DHT22;73746;47.466;8.992;2024-01-27T10:25:11;9.40;99.90
30678;DHT22;73746;47.466;8.992;2024-01-27T10:27:43;9.30;99.90
30678;DHT22;73746;47.466;8.992;2024-01-27T10:30:18;9.50;99.90
30678;DHT22;73746;47.466;8.992;2024-01-27T10:32:56;9.50;99.90
30678;DHT22;73746;47.466;8.992;2024-01-27T10:35:29;9.40;99.90
30678;DHT22;73746;47.466;8.992;2024-01-27T10:38:01;9.40;99.90
30678;DHT22;73746;47.466;8.992;2024-01-27T10:40:34;9.50;99.90
30678;DHT22;73746;47.466;8.992;2024-01-27T10:43:07;9.50;99.90
30678;DHT22;73746;47.466;8.992;2024-01-27T10:45:41;9.50;99.90
30678;DHT22;73746;47.466;8.992;2024-01-27T10:48:13;9.60;99.90
30678;DHT22;73746;47.466;8.992;2024-01-27T10:50:47;9.90;99.90
30678;DHT22;73746;47.466;8.992;2024-01-27T10:53:23;10.00;99.90
30678;DHT22;73746;47.466;8.992;2024-01-27T10:58:34;10.00;99.90
30678;DHT22;73746;47.466;8.992;2024-01-27T11:01:10;10.10;99.90
30678;DHT22;73746;47.466;8.992;2024-01-27T11:03:43;10.20;99.90
30678;DHT22;73746;47.466;8.992;2024-01-27T11:06:15;10.20;99.90
30678;DHT22;73746;47.466;8.992;2024-01-27T11:08:50;10.30;99.90
30678;DHT22;73746;47.466;8.992;2024-01-27T11:11:22;10.40;99.90
30678;DHT22;73746;47.466;8.992;2024-01-27T11:13:54;10.20;99.90
30678;DHT22;73746;47.466;8.992;2024-01-27T11:16:25;10.30;99.90
30678;DHT22;73746;47.466;8.992;2024-01-27T11:18:59;10.40;99.90
30678;DHT22;73746;47.466;8.992;2024-01-27T11:21:31;10.40;99.90
30678;DHT22;73746;47.466;8.992;2024-01-27T11:24:13;10.60;99.90
30678;DHT22;73746;47.466;8.992;2024-01-27T11:26:45;10.90;99.90
30678;DHT22;73746;47.466;8.992;2024-01-27T11:29:17;11.20;99.90
30678;DHT22;73746;47.466;8.992;2024-01-27T11:31:50;11.10;99.90
30678;DHT22;73746;47.466;8.992;2024-01-27T11:34:22;11.20;99.90
30678;DHT22;73746;47.466;8.992;2024-01-27T11:36:54;11.30;99.90
30678;DHT22;73746;47.466;8.992;2024-01-27T11:39:28;11.30;99.90
30678;DHT22;73746;47.466;8.992;2024-01-27T11:42:08;11.20;99.90
30678;DHT22;73746;47.466;8.992;2024-01-27T11:44:41;11.30;99.90
30678;DHT22;73746;47.466;8.992;2024-01-27T11:47:17;11.40;99.90
30678;DHT22;73746;47.466;8.992;2024-01-27T11:49:53;11.60;99.90
30678;DHT22;73746;47.466;8.992;2024-01-27T11:52:27;11.80;99.90
30678;DHT22;73746;47.466;8.992;2024-01-27T11:55:00;11.60;99.90
30678;DHT22;73746;47.466;8.992;2024-01-27T11:57:32;11.80;99.90
30678;DHT22;73746;47.466;8.992;2024-01-27T12:00:06;11.90;99.90
30678;DHT22;73746;47.466;8.992;2024-01-27T12:02:39;11.80;99.90
30678;DHT22;73746;47.466;8.992;2024-01-27T12:05:12;11.90;99.90
30678;DHT22;73746;47.466;8.992;2024-01-27T12:07:45;12.30;99.90
30678;DHT22;73746;47.466;8.992;2024-01-27T12:10:17;12.40;99.90
30678;DHT22;73746;47.466;8.992;2024-01-27T12:12:50;12.60;99.90
30678;DHT22;73746;47.466;8.992;2024-01-27T12:15:22;12.70;99.90
30678;DHT22;73746;47.466;8.992;2024-01-27T12:17:54;12.70;99.90
30678;DHT22;73746;47.466;8.992;2024-01-27T12:20:26;12.90;99.90
30678;DHT22;73746;47.466;8.992;2024-01-27T12:23:04;13.10;99.90
30678;DHT22;73746;47.466;8.992;2024-01-27T12:27:01;13.10;99.90
30678;DHT22;73746;47.466;8.992;2024-01-27T12:32:15;13.40;99.90
30678;DHT22;73746;47.466;8.992;2024-01-27T12:34:47;13.70;99.90
30678;DHT22;73746;47.466;8.992;2024-01-27T12:37:22;13.80;99.90
30678;DHT22;73746;47.466;8.992;2024-01-27T12:39:54;14.10;99.90
30678;DHT22;73746;47.466;8.992;2024-01-27T12:42:44;14.10;99.90
30678;DHT22;73746;47.466;8.992;2024-01-27T12:45:16;14.10;99.90
30678;DHT22;73746;47.466;8.992;2024-01-27T12:47:49;14.00;99.90
30678;DHT22;73746;47.466;8.992;2024-01-27T12:50:21;13.90;99.90
30678;DHT22;73746;47.466;8.992;2024-01-27T12:52:53;13.90;99.90
30678;DHT22;73746;47.466;8.992;2024-01-27T12:55:26;13.80;99.90
30678;DHT22;73746;47.466;8.992;2024-01-27T12:57:58;14.00;99.90
30678;DHT22;73746;47.466;8.992;2024-01-27T13:00:30;14.20;99.90
30678;DHT22;73746;47.466;8.992;2024-01-27T13:03:02;14.50;99.90
30678;DHT22;73746;47.466;8.992;2024-01-27T13:05:34;14.60;99.90
30678;DHT22;73746;47.466;8.992;2024-01-27T13:08:08;14.50;99.90
30678;DHT22;73746;47.466;8.992;2024-01-27T13:10:40;14.60;99.90
30678;DHT22;73746;47.466;8.992;2024-01-27T13:13:12;14.80;99.90
30678;DHT22;73746;47.466;8.992;2024-01-27T13:15:44;15.40;99.90
30678;DHT22;73746;47.466;8.992;2024-01-27T13:18:16;15.90;99.90
30678;DHT22;73746;47.466;8.992;2024-01-27T13:20:48;16.50;99.90
30678;DHT22;73746;47.466;8.992;2024-01-27T13:23:20;16.90;99.90
30678;DHT22;73746;47.466;8.992;2024-01-27T13:25:52;17.20;99.90
30678;DHT22;73746;47.466;8.992;2024-01-27T13:28:28;17.20;99.90
30678;DHT22;73746;47.466;8.992;2024-01-27T13:31:00;17.40;99.90
30678;DHT22;73746;47.466;8.992;2024-01-27T13:33:32;17.80;99.90
30678;DHT22;73746;47.466;8.992;2024-01-27T13:36:06;18.30;99.90
30678;DHT22;73746;47.466;8.992;2024-01-27T13:38:38;18.40;99.90
30678;DHT22;73746;47.466;8.992;2024-01-27T13:41:10;18.50;99.90
30678;DHT22;73746;47.466;8.992;2024-01-27T13:43:42;18.70;99.90
30678;DHT22;73746;47.466;8.992;2024-01-27T13:46:14;18.40;99.90
30678;DHT22;73746;47.466;8.992;2024-01-27T13:48:46;18.70;99.90
30678;DHT22;73746;47.466;8.992;2024-01-27T13:51:18;18.80;99.90
30678;DHT22;73746;47.466;8.992;2024-01-27T13:53:51;18.90;99.90
30678;DHT22;73746;47.466;8.992;2024-01-27T13:56:23;18.90;99.90
30678;DHT22;73746;47.466;8.992;2024-01-27T13:58:55;18.90;99.90
30678;DHT22;73746;47.466;8.992;2024-01-27T14:01:27;18.90;99.90
30678;DHT22;73746;47.466;8.992;2024-01-27T14:03:59;19.10;99.90
30678;DHT22;73746;47.466;8.992;2024-01-27T14:06:31;18.60;99.90
30678;DHT22;73746;47.466;8.992;2024-01-27T14:09:03;18.60;99.90
30678;DHT22;73746;47.466;8.992;2024-01-27T14:11:35;18.90;99.90
30678;DHT22;73746;47.466;8.992;2024-01-27T14:14:07;18.90;99.90
30678;DHT22;73746;47.466;8.992;2024-01-27T14:16:39;19.40;99.90
30678;DHT22;73746;47.466;8.992;2024-01-27T14:19:12;19.30;99.90
30678;DHT22;73746;47.466;8.992;2024-01-27T14:21:44;19.40;99.90
30678;DHT22;73746;47.466;8.992;2024-01-27T14:24:16;19.60;99.90
30678;DHT22;73746;47.466;8.992;2024-01-27T14:26:48;19.70;99.90
30678;DHT22;73746;47.466;8.992;2024-01-27T14:29:20;19.20;99.90
30678;DHT22;73746;47.466;8.992;2024-01-27T14:31:52;19.10;99.90
30678;DHT22;73746;47.466;8.992;2024-01-27T14:34:23;19.10;99.90
30678;DHT22;73746;47.466;8.992;2024-01-27T14:36:56;19.10;99.90
30678;DHT22;73746;47.466;8.992;2024-01-27T14:39:28;19.20;99.90
30678;DHT22;73746;47.466;8.992;2024-01-27T14:42:01;18.70;99.90
30678;DHT22;73746;47.466;8.992;2024-01-27T14:44:34;18.20;99.90
30678;DHT22;73746;47.466;8.992;2024-01-27T14:47:09;18.70;99.90
30678;DHT22;73746;47.466;8.992;2024-01-27T14:49:40;18.90;99.90
30678;DHT22;73746;47.466;8.992;2024-01-27T14:52:14;19.40;99.90
30678;DHT22;73746;47.466;8.992;2024-01-27T14:54:46;19.90;99.60
30678;DHT22;73746;47.466;8.992;2024-01-27T14:57:18;20.30;99.00
30678;DHT22;73746;47.466;8.992;2024-01-27T14:59:50;20.20;98.70
30678;DHT22;73746;47.466;8.992;2024-01-27T15:02:22;20.10;98.10
30678;DHT22;73746;47.466;8.992;2024-01-27T15:04:56;19.20;98.90
30678;DHT22;73746;47.466;8.992;2024-01-27T15:07:27;17.60;99.90
30678;DHT22;73746;47.466;8.992;2024-01-27T15:10:01;16.20;99.90
30678;DHT22;73746;47.466;8.992;2024-01-27T15:12:33;15.20;99.90
30678;DHT22;73746;47.466;8.992;2024-01-27T15:15:07;14.10;99.90
30678;DHT22;73746;47.466;8.992;2024-01-27T15:17:39;13.40;99.90
30678;DHT22;73746;47.466;8.992;2024-01-27T15:20:12;13.70;99.90
30678;DHT22;73746;47.466;8.992;2024-01-27T15:22:45;14.70;99.90
30678;DHT22;73746;47.466;8.992;2024-01-27T15:25:17;14.70;99.90
30678;DHT22;73746;47.466;8.992;2024-01-27T15:27:49;14.50;99.90
30678;DHT22;73746;47.466;8.992;2024-01-27T15:30:21;14.20;99.90
30678;DHT22;73746;47.466;8.992;2024-01-27T15:32:53;13.40;99.90
30678;DHT22;73746;47.466;8.992;2024-01-27T15:35:25;12.30;99.90
30678;DHT22;73746;47.466;8.992;2024-01-27T15:37:59;11.50;99.90
30678;DHT22;73746;47.466;8.992;2024-01-27T15:40:31;10.80;99.90
30678;DHT22;73746;47.466;8.992;2024-01-27T15:43:03;10.30;99.90
30678;DHT22;73746;47.466;8.992;2024-01-27T15:46:43;9.60;99.90
30678;DHT22;73746;47.466;8.992;2024-01-27T15:49:15;9.30;99.90
30678;DHT22;73746;47.466;8.992;2024-01-27T15:51:48;9.10;99.90
30678;DHT22;73746;47.466;8.992;2024-01-27T15:54:21;8.90;99.90
30678;DHT22;73746;47.466;8.992;2024-01-27T15:56:53;8.60;99.90
30678;DHT22;73746;47.466;8.992;2024-01-27T15:59:25;8.40;99.90
30678;DHT22;73746;47.466;8.992;2024-01-27T16:01:57;8.30;99.90
30678;DHT22;73746;47.466;8.992;2024-01-27T16:04:29;8.20;99.90
30678;DHT22;73746;47.466;8.992;2024-01-27T16:07:01;8.20;99.90
30678;DHT22;73746;47.466;8.992;2024-01-27T16:09:33;8.10;99.90
30678;DHT22;73746;47.466;8.992;2024-01-27T16:12:07;8.10;99.90
30678;DHT22;73746;47.466;8.992;2024-01-27T16:14:39;8.00;99.90
30678;DHT22;73746;47.466;8.992;2024-01-27T16:17:11;7.90;99.90
30678;DHT22;73746;47.466;8.992;2024-01-27T16:20:02;7.90;99.90
30678;DHT22;73746;47.466;8.992;2024-01-27T16:22:34;7.80;99.90
30678;DHT22;73746;47.466;8.992;2024-01-27T16:25:07;7.80;99.90
30678;DHT22;73746;47.466;8.992;2024-01-27T16:27:39;7.70;99.90
30678;DHT22;73746;47.466;8.992;2024-01-27T16:30:12;7.60;99.90